createdAt,value
2022-09-11T00:00:43.689Z,24.10
2022-09-11T00:06:07.649Z,24.00
2022-09-11T00:11:17.962Z,24.00
2022-09-11T00:16:29.600Z,24.00
2022-09-11T00:21:39.420Z,24.00
2022-09-11T00:26:43.036Z,24.00
2022-09-11T00:31:46.612Z,23.90
2022-09-11T00:36:50.588Z,23.90
2022-09-11T00:41:54.110Z,23.90
2022-09-11T00:47:01.222Z,23.90
2022-09-11T00:52:32.207Z,23.90
2022-09-11T00:57:42.502Z,23.90
2022-09-11T01:02:49.195Z,24.00
2022-09-11T01:07:55.082Z,24.00
2022-09-11T01:13:11.109Z,24.00
2022-09-11T01:18:30.869Z,24.00
2022-09-11T01:23:55.402Z,24.00
2022-09-11T01:29:06.211Z,24.10
2022-09-11T01:34:23.232Z,24.10
2022-09-11T01:39:33.893Z,24.10
2022-09-11T01:44:40.283Z,24.10
2022-09-11T01:50:05.311Z,24.10
2022-09-11T01:55:19.605Z,24.10
2022-09-11T02:00:27.819Z,24.10
2022-09-11T02:05:44.569Z,24.10
2022-09-11T02:11:03.723Z,24.20
2022-09-11T02:16:23.931Z,24.20
2022-09-11T02:21:28.333Z,24.20
2022-09-11T02:26:39.195Z,24.30
2022-09-11T02:31:43.969Z,24.30
2022-09-11T02:37:20.648Z,24.20
2022-09-11T02:42:48.757Z,24.20
2022-09-11T02:48:08.521Z,24.30
2022-09-11T02:53:38.303Z,24.20
2022-09-11T02:58:50.866Z,24.10
2022-09-11T03:03:54.801Z,24.10
2022-09-11T03:08:59.379Z,24.10
2022-09-11T03:14:08.039Z,24.10
2022-09-11T03:19:14.779Z,24.10
2022-09-11T03:24:18.399Z,24.10
2022-09-11T03:29:22.331Z,24.10
2022-09-11T03:34:26.977Z,24.10
2022-09-11T03:39:30.699Z,24.00
2022-09-11T03:44:35.856Z,24.00
2022-09-11T03:49:39.684Z,24.00
2022-09-11T03:54:43.411Z,24.00
2022-09-11T03:59:47.238Z,24.00
2022-09-11T04:04:50.861Z,24.00
2022-09-11T04:09:55.921Z,23.90
2022-09-11T04:14:59.546Z,23.90
2022-09-11T04:20:05.325Z,23.90
2022-09-11T04:25:09.549Z,23.90
2022-09-11T04:30:14.198Z,23.90
2022-09-11T04:35:17.818Z,23.90
2022-09-11T04:40:26.974Z,23.90
2022-09-11T04:45:33.739Z,23.90
2022-09-11T04:50:38.209Z,23.90
2022-09-11T04:55:50.838Z,23.90
2022-09-11T05:00:55.390Z,23.80
2022-09-11T05:05:58.883Z,23.80
2022-09-11T05:11:05.823Z,23.80
2022-09-11T05:16:12.435Z,23.80
2022-09-11T05:21:18.485Z,23.80
2022-09-11T05:26:31.108Z,23.80
2022-09-11T05:31:41.647Z,23.80
2022-09-11T05:36:46.220Z,23.80
2022-09-11T05:41:54.157Z,23.80
2022-09-11T05:46:59.198Z,23.80
2022-09-11T05:52:07.907Z,23.80
2022-09-11T05:57:13.403Z,23.80
2022-09-11T06:02:17.990Z,23.80
2022-09-11T06:07:27.098Z,23.80
2022-09-11T06:12:31.028Z,23.80
2022-09-11T06:17:37.888Z,23.80
2022-09-11T06:22:42.881Z,23.80
2022-09-11T06:27:46.501Z,23.80
2022-09-11T06:32:52.274Z,23.80
2022-09-11T06:37:56.716Z,23.80
2022-09-11T06:43:06.375Z,23.70
2022-09-11T06:48:10.008Z,23.80
2022-09-11T06:53:15.566Z,23.70
2022-09-11T06:58:28.418Z,23.80
2022-09-11T07:03:33.998Z,23.70
2022-09-11T07:08:39.638Z,23.70
2022-09-11T07:13:43.714Z,23.70
2022-09-11T07:18:49.360Z,23.70
2022-09-11T07:23:59.338Z,23.70
2022-09-11T07:29:15.198Z,23.70
2022-09-11T07:34:20.679Z,23.70
2022-09-11T07:39:29.415Z,23.80
2022-09-11T07:44:37.438Z,23.80
2022-09-11T07:49:41.063Z,23.80
2022-09-11T07:54:45.299Z,23.80
2022-09-11T08:00:01.618Z,23.80
2022-09-11T08:05:25.564Z,23.80
2022-09-11T08:10:30.047Z,23.80
2022-09-11T08:15:38.286Z,23.80
2022-09-11T08:20:48.274Z,23.80
2022-09-11T08:26:08.945Z,23.80
2022-09-11T08:31:29.054Z,23.80
2022-09-11T08:36:38.831Z,23.80
2022-09-11T08:41:58.353Z,23.80
2022-09-11T08:47:10.107Z,23.90
2022-09-11T08:52:19.929Z,23.90
2022-09-11T08:57:29.123Z,23.90
2022-09-11T09:03:17.785Z,23.90
2022-09-11T09:08:59.160Z,24.00
2022-09-11T09:14:28.724Z,24.00
2022-09-11T09:19:48.371Z,24.00
2022-09-11T09:25:04.791Z,24.00
2022-09-11T09:30:34.309Z,24.00
2022-09-11T09:35:42.578Z,24.10
2022-09-11T09:40:55.725Z,24.10
2022-09-11T09:46:11.202Z,24.10
2022-09-11T09:51:15.692Z,24.10
2022-09-11T09:56:29.491Z,24.10
2022-09-11T10:01:51.508Z,24.10
2022-09-11T10:07:07.731Z,24.10
2022-09-11T10:12:46.018Z,24.10
2022-09-11T10:17:51.162Z,24.10
2022-09-11T10:23:30.471Z,24.10
2022-09-11T10:28:37.199Z,24.10
2022-09-11T10:33:58.124Z,24.20
2022-09-11T10:39:03.076Z,24.30
2022-09-11T10:44:18.192Z,24.20
2022-09-11T10:49:23.728Z,24.10
2022-09-11T10:54:47.303Z,24.10
2022-09-11T11:00:14.197Z,24.10
2022-09-11T11:05:25.149Z,24.10
2022-09-11T11:10:43.099Z,24.00
2022-09-11T11:16:14.497Z,24.00
2022-09-11T11:21:29.745Z,23.90
2022-09-11T11:26:50.979Z,23.90
2022-09-11T11:32:25.528Z,23.90
2022-09-11T11:37:41.418Z,24.00
2022-09-11T11:42:56.056Z,24.00
2022-09-11T11:48:56.062Z,23.90
2022-09-11T11:54:11.140Z,23.90
2022-09-11T11:59:21.319Z,23.80
2022-09-11T12:04:49.421Z,23.80
2022-09-11T12:10:04.321Z,23.80
2022-09-11T12:15:25.126Z,23.80
2022-09-11T12:20:52.633Z,23.90
2022-09-11T12:26:11.594Z,23.90
2022-09-11T12:31:18.327Z,23.90
2022-09-11T12:36:34.077Z,24.10
2022-09-11T12:41:38.722Z,24.20
2022-09-11T12:46:48.128Z,24.20
2022-09-11T12:51:55.490Z,24.20
2022-09-11T12:57:19.558Z,24.20
2022-09-11T13:02:39.294Z,24.30
2022-09-11T13:08:06.217Z,24.30
2022-09-11T13:13:54.596Z,24.30
2022-09-11T13:19:28.661Z,24.50
2022-09-11T13:24:37.124Z,24.50
2022-09-11T13:29:55.041Z,24.60
2022-09-11T13:35:24.647Z,24.70
2022-09-11T13:40:44.659Z,24.60
2022-09-11T13:46:10.682Z,24.60
2022-09-11T13:51:30.183Z,24.60
2022-09-11T13:56:51.718Z,24.50
2022-09-11T14:02:01.616Z,24.60
2022-09-11T14:07:27.530Z,24.50
2022-09-11T14:12:46.066Z,24.50
2022-09-11T14:17:50.907Z,24.50
2022-09-11T14:23:09.680Z,24.50
2022-09-11T14:29:08.867Z,24.50
2022-09-11T14:35:23.494Z,24.50
2022-09-11T14:41:05.700Z,24.40
2022-09-11T14:46:20.013Z,24.40
2022-09-11T14:51:45.407Z,24.30
2022-09-11T14:56:56.488Z,24.30
2022-09-11T15:02:00.360Z,24.30
2022-09-11T15:07:06.793Z,24.30
2022-09-11T15:12:14.967Z,24.30
2022-09-11T15:17:48.656Z,24.20
2022-09-11T15:22:57.085Z,24.20
2022-09-11T15:28:00.602Z,24.10
2022-09-11T15:33:07.811Z,24.20
2022-09-11T15:38:21.376Z,24.10
2022-09-11T15:43:44.418Z,24.10
2022-09-11T15:49:09.868Z,24.10
2022-09-11T15:54:31.547Z,24.10
2022-09-11T16:00:12.413Z,24.00
2022-09-11T16:05:18.643Z,24.10
2022-09-11T16:10:33.608Z,24.00
2022-09-11T16:15:42.652Z,24.00
2022-09-11T16:20:56.210Z,24.00
2022-09-11T16:26:25.621Z,23.90
2022-09-11T16:31:29.112Z,23.80
2022-09-11T16:36:41.087Z,23.80
2022-09-11T16:41:45.007Z,23.80
2022-09-11T16:47:03.030Z,23.80
2022-09-11T16:52:07.479Z,23.80
2022-09-11T16:57:11.309Z,23.90
2022-09-11T17:02:14.988Z,23.90
2022-09-11T17:07:20.954Z,23.90
2022-09-11T17:12:28.828Z,23.90
2022-09-11T17:17:40.837Z,23.80
2022-09-11T17:22:57.831Z,23.80
2022-09-11T17:28:08.407Z,23.80
2022-09-11T17:33:15.922Z,23.80
2022-09-11T17:38:20.102Z,23.90
2022-09-11T17:43:24.648Z,23.90
2022-09-11T17:48:29.603Z,24.00
2022-09-11T17:53:38.478Z,24.00
2022-09-11T17:58:44.463Z,24.00
2022-09-11T18:03:53.258Z,24.00
2022-09-11T18:09:05.068Z,24.00
2022-09-11T18:14:09.922Z,24.10
2022-09-11T18:19:21.564Z,24.00
2022-09-11T18:24:31.662Z,24.00
2022-09-11T18:29:42.646Z,24.00
2022-09-11T18:35:05.045Z,24.00
2022-09-11T18:40:09.221Z,24.00
2022-09-11T18:45:17.416Z,23.90
2022-09-11T18:50:22.353Z,24.00
2022-09-11T18:55:29.750Z,24.00
2022-09-11T19:00:34.758Z,24.00
2022-09-11T19:05:48.165Z,23.90
2022-09-11T19:10:51.916Z,23.90
2022-09-11T19:15:57.208Z,23.90
2022-09-11T19:21:05.993Z,23.80
2022-09-11T19:26:25.889Z,23.80
2022-09-11T19:31:31.007Z,23.80
2022-09-11T19:36:36.622Z,23.90
2022-09-11T19:41:40.852Z,23.90
2022-09-11T19:46:48.804Z,23.80
2022-09-11T19:51:54.960Z,23.80
2022-09-11T19:57:01.136Z,23.80
2022-09-11T20:02:12.679Z,23.90
2022-09-11T20:07:20.459Z,23.80
2022-09-11T20:12:31.267Z,23.80
2022-09-11T20:17:36.197Z,23.80
2022-09-11T20:22:42.264Z,23.80
2022-09-11T20:27:49.503Z,23.80
2022-09-11T20:32:53.819Z,23.70
2022-09-11T20:37:57.341Z,23.80
2022-09-11T20:43:01.072Z,23.80
2022-09-11T20:48:05.099Z,23.80
2022-09-11T20:53:09.757Z,23.80
2022-09-11T20:58:13.490Z,23.80
2022-09-11T21:03:21.702Z,23.80
2022-09-11T21:08:28.194Z,23.90
2022-09-11T21:13:38.256Z,23.90
2022-09-11T21:18:49.380Z,23.90
2022-09-11T21:24:02.501Z,23.90
2022-09-11T21:29:08.864Z,23.90
2022-09-11T21:34:16.492Z,23.80
2022-09-11T21:39:27.799Z,23.80
2022-09-11T21:44:45.556Z,23.80
2022-09-11T21:49:49.566Z,23.80
2022-09-11T21:54:55.138Z,23.80
2022-09-11T21:59:59.373Z,23.90
2022-09-11T22:05:07.702Z,23.80
2022-09-11T22:10:12.042Z,23.80
2022-09-11T22:15:18.223Z,23.80
2022-09-11T22:20:31.536Z,23.90
2022-09-11T22:25:48.086Z,23.90
2022-09-11T22:30:51.714Z,23.90
2022-09-11T22:35:55.538Z,23.80
2022-09-11T22:40:59.261Z,23.80
2022-09-11T22:46:03.623Z,23.80
2022-09-11T22:51:07.120Z,23.80
2022-09-11T22:56:10.850Z,23.80
2022-09-11T23:01:21.604Z,23.80
2022-09-11T23:06:45.621Z,23.80
2022-09-11T23:11:49.347Z,23.80
2022-09-11T23:16:52.869Z,23.80
2022-09-11T23:21:56.494Z,23.80
2022-09-11T23:27:00.011Z,23.80
2022-09-11T23:32:03.944Z,23.80
2022-09-11T23:37:07.565Z,23.80
2022-09-11T23:42:10.965Z,23.80
2022-09-11T23:47:14.505Z,23.80
2022-09-11T23:52:18.140Z,23.70
2022-09-11T23:57:22.163Z,23.70
